sensor_id;sensor_type;location;lat;lon;timestamp;P1;durP1;ratioP1;P2;durP2;ratioP2
29214;SDS011;16252;49.816;7.964;2023-05-17T00:00:05;3.38;;;1.40;;
29214;SDS011;16252;49.816;7.964;2023-05-17T00:02:33;2.05;;;1.25;;
29214;SDS011;16252;49.816;7.964;2023-05-17T00:04:58;3.08;;;1.67;;
29214;SDS011;16252;49.816;7.964;2023-05-17T00:07:24;2.65;;;1.80;;
29214;SDS011;16252;49.816;7.964;2023-05-17T00:09:49;3.85;;;1.50;;
29214;SDS011;16252;49.816;7.964;2023-05-17T00:12:14;1.83;;;1.40;;
29214;SDS011;16252;49.816;7.964;2023-05-17T00:14:39;3.03;;;1.58;;
29214;SDS011;16252;49.816;7.964;2023-05-17T00:17:05;3.15;;;1.30;;
29214;SDS011;16252;49.816;7.964;2023-05-17T00:19:30;3.08;;;1.48;;
29214;SDS011;16252;49.816;7.964;2023-05-17T00:21:55;5.40;;;1.65;;
29214;SDS011;16252;49.816;7.964;2023-05-17T00:24:20;3.55;;;1.50;;
29214;SDS011;16252;49.816;7.964;2023-05-17T00:26:46;3.97;;;1.70;;
29214;SDS011;16252;49.816;7.964;2023-05-17T00:29:11;5.35;;;1.85;;
29214;SDS011;16252;49.816;7.964;2023-05-17T00:31:36;3.03;;;1.65;;
29214;SDS011;16252;49.816;7.964;2023-05-17T00:34:01;2.20;;;1.75;;
29214;SDS011;16252;49.816;7.964;2023-05-17T00:36:27;3.97;;;1.75;;
29214;SDS011;16252;49.816;7.964;2023-05-17T00:38:52;4.45;;;1.88;;
29214;SDS011;16252;49.816;7.964;2023-05-17T00:41:17;5.47;;;1.55;;
29214;SDS011;16252;49.816;7.964;2023-05-17T00:43:42;3.60;;;1.75;;
29214;SDS011;16252;49.816;7.964;2023-05-17T00:46:08;5.32;;;1.85;;
29214;SDS011;16252;49.816;7.964;2023-05-17T00:48:33;3.33;;;1.55;;
29214;SDS011;16252;49.816;7.964;2023-05-17T00:50:58;4.20;;;1.50;;
29214;SDS011;16252;49.816;7.964;2023-05-17T00:53:24;2.88;;;1.52;;
29214;SDS011;16252;49.816;7.964;2023-05-17T00:55:50;3.70;;;1.80;;
29214;SDS011;16252;49.816;7.964;2023-05-17T00:58:16;5.50;;;2.03;;
29214;SDS011;16252;49.816;7.964;2023-05-17T01:00:41;5.20;;;2.00;;
29214;SDS011;16252;49.816;7.964;2023-05-17T01:03:07;3.50;;;1.85;;
29214;SDS011;16252;49.816;7.964;2023-05-17T01:05:34;5.15;;;1.95;;
29214;SDS011;16252;49.816;7.964;2023-05-17T01:08:00;3.88;;;1.85;;
29214;SDS011;16252;49.816;7.964;2023-05-17T01:10:27;3.47;;;1.92;;
29214;SDS011;16252;49.816;7.964;2023-05-17T01:13:09;3.60;;;1.90;;
29214;SDS011;16252;49.816;7.964;2023-05-17T01:15:42;2.92;;;1.52;;
29214;SDS011;16252;49.816;7.964;2023-05-17T01:18:22;3.20;;;1.70;;
29214;SDS011;16252;49.816;7.964;2023-05-17T01:20:57;3.90;;;1.33;;
29214;SDS011;16252;49.816;7.964;2023-05-17T01:23:39;3.87;;;1.53;;
29214;SDS011;16252;49.816;7.964;2023-05-17T01:29:02;4.68;;;1.70;;
29214;SDS011;16252;49.816;7.964;2023-05-17T01:31:29;4.80;;;1.75;;
29214;SDS011;16252;49.816;7.964;2023-05-17T01:33:55;4.47;;;1.67;;
29214;SDS011;16252;49.816;7.964;2023-05-17T01:36:22;2.97;;;1.40;;
29214;SDS011;16252;49.816;7.964;2023-05-17T01:38:47;3.53;;;1.75;;
29214;SDS011;16252;49.816;7.964;2023-05-17T01:41:14;4.68;;;2.13;;
29214;SDS011;16252;49.816;7.964;2023-05-17T01:43:47;5.38;;;1.73;;
29214;SDS011;16252;49.816;7.964;2023-05-17T01:46:40;5.10;;;1.70;;
29214;SDS011;16252;49.816;7.964;2023-05-17T01:49:24;8.30;;;2.50;;
29214;SDS011;16252;49.816;7.964;2023-05-17T01:51:56;3.53;;;2.10;;
29214;SDS011;16252;49.816;7.964;2023-05-17T01:54:37;3.38;;;2.00;;
29214;SDS011;16252;49.816;7.964;2023-05-17T01:57:07;3.75;;;2.20;;
29214;SDS011;16252;49.816;7.964;2023-05-17T01:59:36;3.67;;;2.00;;
29214;SDS011;16252;49.816;7.964;2023-05-17T02:02:02;3.95;;;2.03;;
29214;SDS011;16252;49.816;7.964;2023-05-17T02:04:33;3.10;;;2.20;;
29214;SDS011;16252;49.816;7.964;2023-05-17T02:06:58;3.80;;;2.13;;
29214;SDS011;16252;49.816;7.964;2023-05-17T02:09:24;3.40;;;1.90;;
29214;SDS011;16252;49.816;7.964;2023-05-17T02:11:49;3.08;;;1.85;;
29214;SDS011;16252;49.816;7.964;2023-05-17T02:14:14;6.20;;;2.20;;
29214;SDS011;16252;49.816;7.964;2023-05-17T02:16:40;3.33;;;1.60;;
29214;SDS011;16252;49.816;7.964;2023-05-17T02:19:05;4.38;;;1.98;;
29214;SDS011;16252;49.816;7.964;2023-05-17T02:21:32;5.72;;;2.22;;
29214;SDS011;16252;49.816;7.964;2023-05-17T02:23:58;3.67;;;2.05;;
29214;SDS011;16252;49.816;7.964;2023-05-17T02:26:23;3.35;;;2.00;;
29214;SDS011;16252;49.816;7.964;2023-05-17T02:28:48;2.72;;;1.70;;
29214;SDS011;16252;49.816;7.964;2023-05-17T02:31:14;3.42;;;2.20;;
29214;SDS011;16252;49.816;7.964;2023-05-17T02:33:39;4.47;;;2.03;;
29214;SDS011;16252;49.816;7.964;2023-05-17T02:36:04;5.10;;;2.30;;
29214;SDS011;16252;49.816;7.964;2023-05-17T02:38:29;5.40;;;1.90;;
29214;SDS011;16252;49.816;7.964;2023-05-17T02:40:55;4.68;;;2.42;;
29214;SDS011;16252;49.816;7.964;2023-05-17T02:43:20;3.53;;;2.22;;
29214;SDS011;16252;49.816;7.964;2023-05-17T02:45:45;2.92;;;1.90;;
29214;SDS011;16252;49.816;7.964;2023-05-17T02:48:11;4.28;;;2.00;;
29214;SDS011;16252;49.816;7.964;2023-05-17T02:50:36;4.35;;;1.90;;
29214;SDS011;16252;49.816;7.964;2023-05-17T02:53:01;4.07;;;2.35;;
29214;SDS011;16252;49.816;7.964;2023-05-17T02:55:27;2.58;;;1.70;;
29214;SDS011;16252;49.816;7.964;2023-05-17T02:57:52;3.53;;;2.05;;
29214;SDS011;16252;49.816;7.964;2023-05-17T03:00:17;4.38;;;1.90;;
29214;SDS011;16252;49.816;7.964;2023-05-17T03:02:43;6.60;;;2.35;;
29214;SDS011;16252;49.816;7.964;2023-05-17T03:05:08;4.00;;;2.15;;
29214;SDS011;16252;49.816;7.964;2023-05-17T03:07:34;4.18;;;2.08;;
29214;SDS011;16252;49.816;7.964;2023-05-17T03:09:59;2.90;;;1.70;;
29214;SDS011;16252;49.816;7.964;2023-05-17T03:12:24;5.55;;;2.08;;
29214;SDS011;16252;49.816;7.964;2023-05-17T03:14:50;2.92;;;1.80;;
29214;SDS011;16252;49.816;7.964;2023-05-17T03:17:15;4.30;;;2.10;;
29214;SDS011;16252;49.816;7.964;2023-05-17T03:19:40;4.15;;;2.05;;
29214;SDS011;16252;49.816;7.964;2023-05-17T03:22:05;4.40;;;1.92;;
29214;SDS011;16252;49.816;7.964;2023-05-17T03:24:31;3.30;;;2.17;;
29214;SDS011;16252;49.816;7.964;2023-05-17T03:26:56;5.80;;;2.05;;
29214;SDS011;16252;49.816;7.964;2023-05-17T03:29:21;5.00;;;1.98;;
29214;SDS011;16252;49.816;7.964;2023-05-17T03:31:47;3.72;;;2.00;;
29214;SDS011;16252;49.816;7.964;2023-05-17T03:34:12;4.80;;;2.08;;
29214;SDS011;16252;49.816;7.964;2023-05-17T03:36:37;6.65;;;2.17;;
29214;SDS011;16252;49.816;7.964;2023-05-17T03:39:06;4.78;;;2.25;;
29214;SDS011;16252;49.816;7.964;2023-05-17T03:41:31;5.80;;;1.98;;
29214;SDS011;16252;49.816;7.964;2023-05-17T03:43:56;2.75;;;1.77;;
29214;SDS011;16252;49.816;7.964;2023-05-17T03:46:22;4.43;;;1.98;;
29214;SDS011;16252;49.816;7.964;2023-05-17T03:48:47;3.53;;;1.90;;
29214;SDS011;16252;49.816;7.964;2023-05-17T03:51:12;3.22;;;1.80;;
29214;SDS011;16252;49.816;7.964;2023-05-17T03:53:38;5.05;;;1.90;;
29214;SDS011;16252;49.816;7.964;2023-05-17T03:56:07;4.35;;;2.35;;
29214;SDS011;16252;49.816;7.964;2023-05-17T03:58:35;3.15;;;1.70;;
29214;SDS011;16252;49.816;7.964;2023-05-17T04:01:00;3.60;;;1.90;;
29214;SDS011;16252;49.816;7.964;2023-05-17T04:03:26;2.30;;;1.70;;
29214;SDS011;16252;49.816;7.964;2023-05-17T04:05:51;3.00;;;1.83;;
29214;SDS011;16252;49.816;7.964;2023-05-17T04:08:17;3.47;;;1.90;;
29214;SDS011;16252;49.816;7.964;2023-05-17T04:10:42;3.15;;;1.98;;
29214;SDS011;16252;49.816;7.964;2023-05-17T04:13:07;2.85;;;1.50;;
29214;SDS011;16252;49.816;7.964;2023-05-17T04:15:33;3.13;;;1.50;;
29214;SDS011;16252;49.816;7.964;2023-05-17T04:17:59;3.05;;;1.65;;
29214;SDS011;16252;49.816;7.964;2023-05-17T04:20:24;2.53;;;1.45;;
29214;SDS011;16252;49.816;7.964;2023-05-17T04:22:49;2.88;;;1.60;;
29214;SDS011;16252;49.816;7.964;2023-05-17T04:25:15;2.75;;;1.80;;
29214;SDS011;16252;49.816;7.964;2023-05-17T04:27:41;3.85;;;1.80;;
29214;SDS011;16252;49.816;7.964;2023-05-17T04:30:06;2.47;;;1.80;;
29214;SDS011;16252;49.816;7.964;2023-05-17T04:32:32;2.25;;;1.63;;
29214;SDS011;16252;49.816;7.964;2023-05-17T04:34:58;2.92;;;1.65;;
29214;SDS011;16252;49.816;7.964;2023-05-17T04:37:23;3.72;;;1.70;;
29214;SDS011;16252;49.816;7.964;2023-05-17T04:39:49;2.92;;;1.77;;
29214;SDS011;16252;49.816;7.964;2023-05-17T04:42:16;2.72;;;1.60;;
29214;SDS011;16252;49.816;7.964;2023-05-17T04:44:42;2.75;;;1.90;;
29214;SDS011;16252;49.816;7.964;2023-05-17T04:47:07;3.45;;;1.85;;
29214;SDS011;16252;49.816;7.964;2023-05-17T04:49:32;3.70;;;1.98;;
29214;SDS011;16252;49.816;7.964;2023-05-17T04:51:58;2.75;;;1.65;;
29214;SDS011;16252;49.816;7.964;2023-05-17T04:54:24;6.63;;;2.55;;
29214;SDS011;16252;49.816;7.964;2023-05-17T04:56:50;2.70;;;1.90;;
29214;SDS011;16252;49.816;7.964;2023-05-17T04:59:15;8.05;;;2.92;;
29214;SDS011;16252;49.816;7.964;2023-05-17T05:01:40;4.07;;;2.88;;
29214;SDS011;16252;49.816;7.964;2023-05-17T05:04:05;10.70;;;3.85;;
29214;SDS011;16252;49.816;7.964;2023-05-17T05:06:31;12.35;;;3.45;;
29214;SDS011;16252;49.816;7.964;2023-05-17T05:08:57;5.15;;;3.20;;
29214;SDS011;16252;49.816;7.964;2023-05-17T05:11:23;8.25;;;3.40;;
29214;SDS011;16252;49.816;7.964;2023-05-17T05:13:49;5.25;;;3.10;;
29214;SDS011;16252;49.816;7.964;2023-05-17T05:16:14;4.43;;;2.63;;
29214;SDS011;16252;49.816;7.964;2023-05-17T05:18:39;4.90;;;2.10;;
29214;SDS011;16252;49.816;7.964;2023-05-17T05:21:04;5.00;;;1.77;;
29214;SDS011;16252;49.816;7.964;2023-05-17T05:23:30;2.83;;;2.00;;
29214;SDS011;16252;49.816;7.964;2023-05-17T05:25:55;4.07;;;1.95;;
29214;SDS011;16252;49.816;7.964;2023-05-17T05:28:20;4.70;;;2.00;;
29214;SDS011;16252;49.816;7.964;2023-05-17T05:30:46;4.05;;;1.95;;
29214;SDS011;16252;49.816;7.964;2023-05-17T05:33:11;4.70;;;1.80;;
29214;SDS011;16252;49.816;7.964;2023-05-17T05:35:36;5.22;;;1.92;;
29214;SDS011;16252;49.816;7.964;2023-05-17T05:38:01;7.13;;;2.60;;
29214;SDS011;16252;49.816;7.964;2023-05-17T05:40:27;3.92;;;2.05;;
29214;SDS011;16252;49.816;7.964;2023-05-17T05:42:52;4.68;;;2.00;;
29214;SDS011;16252;49.816;7.964;2023-05-17T05:45:17;4.47;;;2.08;;
29214;SDS011;16252;49.816;7.964;2023-05-17T05:47:43;5.68;;;2.30;;
29214;SDS011;16252;49.816;7.964;2023-05-17T05:50:08;5.07;;;2.03;;
29214;SDS011;16252;49.816;7.964;2023-05-17T05:52:35;6.95;;;2.00;;
29214;SDS011;16252;49.816;7.964;2023-05-17T05:55:00;4.03;;;2.28;;
29214;SDS011;16252;49.816;7.964;2023-05-17T05:57:25;5.57;;;2.30;;
29214;SDS011;16252;49.816;7.964;2023-05-17T05:59:51;3.38;;;2.03;;
29214;SDS011;16252;49.816;7.964;2023-05-17T06:02:16;3.83;;;2.28;;
29214;SDS011;16252;49.816;7.964;2023-05-17T06:04:41;5.65;;;2.58;;
29214;SDS011;16252;49.816;7.964;2023-05-17T06:07:07;4.63;;;2.40;;
29214;SDS011;16252;49.816;7.964;2023-05-17T06:09:33;4.88;;;2.75;;
29214;SDS011;16252;49.816;7.964;2023-05-17T06:11:59;5.78;;;3.03;;
29214;SDS011;16252;49.816;7.964;2023-05-17T06:14:25;4.75;;;2.83;;
29214;SDS011;16252;49.816;7.964;2023-05-17T06:16:50;5.93;;;3.10;;
29214;SDS011;16252;49.816;7.964;2023-05-17T06:19:15;7.72;;;3.17;;
29214;SDS011;16252;49.816;7.964;2023-05-17T06:21:41;4.65;;;2.25;;
29214;SDS011;16252;49.816;7.964;2023-05-17T06:24:06;4.35;;;2.63;;
29214;SDS011;16252;49.816;7.964;2023-05-17T06:26:31;6.03;;;2.50;;
29214;SDS011;16252;49.816;7.964;2023-05-17T06:28:57;6.57;;;2.95;;
29214;SDS011;16252;49.816;7.964;2023-05-17T06:31:22;6.20;;;2.97;;
29214;SDS011;16252;49.816;7.964;2023-05-17T06:33:47;4.55;;;2.53;;
29214;SDS011;16252;49.816;7.964;2023-05-17T06:36:12;7.85;;;2.75;;
29214;SDS011;16252;49.816;7.964;2023-05-17T06:38:38;4.53;;;2.70;;
29214;SDS011;16252;49.816;7.964;2023-05-17T06:41:03;4.72;;;2.47;;
29214;SDS011;16252;49.816;7.964;2023-05-17T06:43:28;6.70;;;2.63;;
29214;SDS011;16252;49.816;7.964;2023-05-17T06:45:54;5.15;;;2.38;;
29214;SDS011;16252;49.816;7.964;2023-05-17T06:48:19;4.28;;;2.55;;
29214;SDS011;16252;49.816;7.964;2023-05-17T06:50:44;5.82;;;2.58;;
29214;SDS011;16252;49.816;7.964;2023-05-17T06:53:10;5.00;;;2.47;;
29214;SDS011;16252;49.816;7.964;2023-05-17T06:55:35;4.13;;;2.10;;
29214;SDS011;16252;49.816;7.964;2023-05-17T06:58:00;6.55;;;2.72;;
29214;SDS011;16252;49.816;7.964;2023-05-17T07:00:25;6.70;;;2.45;;
29214;SDS011;16252;49.816;7.964;2023-05-17T07:02:51;7.10;;;2.60;;
29214;SDS011;16252;49.816;7.964;2023-05-17T07:05:16;4.68;;;2.10;;
29214;SDS011;16252;49.816;7.964;2023-05-17T07:07:41;5.50;;;3.00;;
29214;SDS011;16252;49.816;7.964;2023-05-17T07:10:07;5.35;;;2.47;;
29214;SDS011;16252;49.816;7.964;2023-05-17T07:12:32;5.97;;;2.80;;
29214;SDS011;16252;49.816;7.964;2023-05-17T07:14:58;8.45;;;3.03;;
29214;SDS011;16252;49.816;7.964;2023-05-17T07:17:23;6.63;;;2.30;;
29214;SDS011;16252;49.816;7.964;2023-05-17T07:19:48;6.45;;;2.83;;
29214;SDS011;16252;49.816;7.964;2023-05-17T07:22:15;5.88;;;2.85;;
29214;SDS011;16252;49.816;7.964;2023-05-17T07:24:41;4.32;;;2.90;;
29214;SDS011;16252;49.816;7.964;2023-05-17T07:27:07;7.13;;;2.88;;
29214;SDS011;16252;49.816;7.964;2023-05-17T07:29:32;6.63;;;2.80;;
29214;SDS011;16252;49.816;7.964;2023-05-17T07:31:57;7.90;;;3.00;;
29214;SDS011;16252;49.816;7.964;2023-05-17T07:34:22;5.75;;;3.05;;
29214;SDS011;16252;49.816;7.964;2023-05-17T07:36:48;7.57;;;3.35;;
29214;SDS011;16252;49.816;7.964;2023-05-17T07:39:13;4.95;;;2.20;;
29214;SDS011;16252;49.816;7.964;2023-05-17T07:41:38;5.10;;;2.40;;
29214;SDS011;16252;49.816;7.964;2023-05-17T07:44:04;6.90;;;2.38;;
29214;SDS011;16252;49.816;7.964;2023-05-17T07:46:29;3.78;;;1.77;;
29214;SDS011;16252;49.816;7.964;2023-05-17T07:48:55;6.57;;;2.50;;
29214;SDS011;16252;49.816;7.964;2023-05-17T07:51:20;5.20;;;2.67;;
29214;SDS011;16252;49.816;7.964;2023-05-17T07:53:45;5.72;;;2.30;;
29214;SDS011;16252;49.816;7.964;2023-05-17T07:56:10;7.70;;;2.10;;
29214;SDS011;16252;49.816;7.964;2023-05-17T07:58:36;4.95;;;2.25;;
29214;SDS011;16252;49.816;7.964;2023-05-17T08:01:01;6.53;;;2.50;;
29214;SDS011;16252;49.816;7.964;2023-05-17T08:03:26;4.65;;;2.10;;
29214;SDS011;16252;49.816;7.964;2023-05-17T08:05:52;3.58;;;2.03;;
29214;SDS011;16252;49.816;7.964;2023-05-17T08:08:17;4.97;;;2.08;;
29214;SDS011;16252;49.816;7.964;2023-05-17T08:10:43;4.47;;;2.50;;
29214;SDS011;16252;49.816;7.964;2023-05-17T08:13:08;2.95;;;2.20;;
29214;SDS011;16252;49.816;7.964;2023-05-17T08:15:33;5.22;;;2.30;;
29214;SDS011;16252;49.816;7.964;2023-05-17T08:17:59;6.28;;;2.58;;
29214;SDS011;16252;49.816;7.964;2023-05-17T08:20:24;3.40;;;2.17;;
29214;SDS011;16252;49.816;7.964;2023-05-17T08:22:49;6.15;;;2.35;;
29214;SDS011;16252;49.816;7.964;2023-05-17T08:25:14;5.95;;;2.63;;
29214;SDS011;16252;49.816;7.964;2023-05-17T08:27:40;3.05;;;1.83;;
29214;SDS011;16252;49.816;7.964;2023-05-17T08:30:05;4.00;;;2.20;;
29214;SDS011;16252;49.816;7.964;2023-05-17T08:32:31;4.63;;;2.40;;
29214;SDS011;16252;49.816;7.964;2023-05-17T08:34:57;3.13;;;2.08;;
29214;SDS011;16252;49.816;7.964;2023-05-17T08:37:22;3.97;;;1.75;;
29214;SDS011;16252;49.816;7.964;2023-05-17T08:39:47;6.65;;;2.53;;
29214;SDS011;16252;49.816;7.964;2023-05-17T08:42:13;4.65;;;2.00;;
29214;SDS011;16252;49.816;7.964;2023-05-17T08:44:39;5.07;;;2.67;;
29214;SDS011;16252;49.816;7.964;2023-05-17T08:47:04;3.78;;;2.20;;
29214;SDS011;16252;49.816;7.964;2023-05-17T08:49:33;3.08;;;1.73;;
29214;SDS011;16252;49.816;7.964;2023-05-17T08:52:02;5.78;;;2.30;;
29214;SDS011;16252;49.816;7.964;2023-05-17T08:54:33;4.32;;;2.13;;
29214;SDS011;16252;49.816;7.964;2023-05-17T08:56:59;3.90;;;1.83;;
29214;SDS011;16252;49.816;7.964;2023-05-17T08:59:28;6.43;;;2.03;;
29214;SDS011;16252;49.816;7.964;2023-05-17T09:01:57;3.47;;;2.15;;
29214;SDS011;16252;49.816;7.964;2023-05-17T09:04:23;4.28;;;1.90;;
29214;SDS011;16252;49.816;7.964;2023-05-17T09:06:49;5.35;;;2.13;;
29214;SDS011;16252;49.816;7.964;2023-05-17T09:09:14;4.32;;;2.10;;
29214;SDS011;16252;49.816;7.964;2023-05-17T09:11:40;3.88;;;1.85;;
29214;SDS011;16252;49.816;7.964;2023-05-17T09:14:05;3.80;;;2.17;;
29214;SDS011;16252;49.816;7.964;2023-05-17T09:16:35;4.35;;;1.92;;
29214;SDS011;16252;49.816;7.964;2023-05-17T09:19:02;2.67;;;1.60;;
29214;SDS011;16252;49.816;7.964;2023-05-17T09:21:29;5.05;;;1.88;;
29214;SDS011;16252;49.816;7.964;2023-05-17T09:23:55;4.22;;;1.83;;
29214;SDS011;16252;49.816;7.964;2023-05-17T09:26:23;4.03;;;1.88;;
29214;SDS011;16252;49.816;7.964;2023-05-17T09:28:48;4.20;;;1.75;;
29214;SDS011;16252;49.816;7.964;2023-05-17T09:31:14;6.75;;;2.17;;
29214;SDS011;16252;49.816;7.964;2023-05-17T09:33:48;5.15;;;2.10;;
29214;SDS011;16252;49.816;7.964;2023-05-17T09:36:21;4.57;;;2.05;;
29214;SDS011;16252;49.816;7.964;2023-05-17T09:38:54;3.45;;;1.63;;
29214;SDS011;16252;49.816;7.964;2023-05-17T09:41:20;3.33;;;1.70;;
29214;SDS011;16252;49.816;7.964;2023-05-17T09:46:15;3.17;;;1.60;;
29214;SDS011;16252;49.816;7.964;2023-05-17T09:48:43;4.75;;;1.75;;
29214;SDS011;16252;49.816;7.964;2023-05-17T09:51:10;2.97;;;2.08;;
29214;SDS011;16252;49.816;7.964;2023-05-17T09:53:35;4.13;;;2.10;;
29214;SDS011;16252;49.816;7.964;2023-05-17T09:56:05;4.63;;;2.20;;
29214;SDS011;16252;49.816;7.964;2023-05-17T09:58:31;4.30;;;2.00;;
29214;SDS011;16252;49.816;7.964;2023-05-17T10:00:58;2.53;;;1.58;;
29214;SDS011;16252;49.816;7.964;2023-05-17T10:03:34;3.72;;;2.10;;
29214;SDS011;16252;49.816;7.964;2023-05-17T10:06:01;3.95;;;2.25;;
29214;SDS011;16252;49.816;7.964;2023-05-17T10:08:30;3.40;;;2.00;;
29214;SDS011;16252;49.816;7.964;2023-05-17T10:10:58;3.92;;;1.90;;
29214;SDS011;16252;49.816;7.964;2023-05-17T10:18:24;3.45;;;1.60;;
29214;SDS011;16252;49.816;7.964;2023-05-17T10:20:50;3.10;;;1.70;;
29214;SDS011;16252;49.816;7.964;2023-05-17T10:23:16;5.65;;;2.00;;
29214;SDS011;16252;49.816;7.964;2023-05-17T10:25:43;4.85;;;2.55;;
29214;SDS011;16252;49.816;7.964;2023-05-17T10:28:09;4.35;;;2.35;;
29214;SDS011;16252;49.816;7.964;2023-05-17T10:30:35;3.00;;;1.90;;
29214;SDS011;16252;49.816;7.964;2023-05-17T10:33:02;3.08;;;2.13;;
29214;SDS011;16252;49.816;7.964;2023-05-17T10:35:28;3.33;;;1.98;;
29214;SDS011;16252;49.816;7.964;2023-05-17T10:37:56;4.68;;;2.38;;
29214;SDS011;16252;49.816;7.964;2023-05-17T10:40:21;6.13;;;2.58;;
29214;SDS011;16252;49.816;7.964;2023-05-17T10:42:49;4.70;;;2.80;;
29214;SDS011;16252;49.816;7.964;2023-05-17T10:45:19;6.22;;;2.85;;
29214;SDS011;16252;49.816;7.964;2023-05-17T10:50:12;4.00;;;2.50;;
29214;SDS011;16252;49.816;7.964;2023-05-17T10:52:44;5.00;;;2.17;;
29214;SDS011;16252;49.816;7.964;2023-05-17T10:55:11;4.57;;;2.60;;
29214;SDS011;16252;49.816;7.964;2023-05-17T10:57:36;5.65;;;2.45;;
29214;SDS011;16252;49.816;7.964;2023-05-17T11:00:03;4.13;;;2.25;;
29214;SDS011;16252;49.816;7.964;2023-05-17T11:02:31;4.28;;;2.95;;
29214;SDS011;16252;49.816;7.964;2023-05-17T11:04:58;4.82;;;2.17;;
29214;SDS011;16252;49.816;7.964;2023-05-17T11:07:25;3.40;;;2.20;;
29214;SDS011;16252;49.816;7.964;2023-05-17T11:12:34;5.10;;;2.30;;
29214;SDS011;16252;49.816;7.964;2023-05-17T11:17:35;4.65;;;2.00;;
29214;SDS011;16252;49.816;7.964;2023-05-17T11:22:39;5.35;;;2.25;;
29214;SDS011;16252;49.816;7.964;2023-05-17T11:25:07;4.72;;;2.58;;
29214;SDS011;16252;49.816;7.964;2023-05-17T11:27:35;4.45;;;2.42;;
29214;SDS011;16252;49.816;7.964;2023-05-17T11:30:39;4.45;;;2.55;;
29214;SDS011;16252;49.816;7.964;2023-05-17T11:33:02;4.78;;;3.03;;
29214;SDS011;16252;49.816;7.964;2023-05-17T11:35:31;3.40;;;2.40;;
29214;SDS011;16252;49.816;7.964;2023-05-17T11:40:42;2.58;;;2.08;;
29214;SDS011;16252;49.816;7.964;2023-05-17T11:43:16;5.78;;;2.80;;
29214;SDS011;16252;49.816;7.964;2023-05-17T11:45:47;5.15;;;2.70;;
29214;SDS011;16252;49.816;7.964;2023-05-17T11:48:23;3.65;;;2.38;;
29214;SDS011;16252;49.816;7.964;2023-05-17T11:50:50;4.28;;;3.10;;
29214;SDS011;16252;49.816;7.964;2023-05-17T11:53:16;3.20;;;2.20;;
29214;SDS011;16252;49.816;7.964;2023-05-17T11:55:42;2.40;;;1.80;;
29214;SDS011;16252;49.816;7.964;2023-05-17T11:58:12;3.95;;;2.08;;
29214;SDS011;16252;49.816;7.964;2023-05-17T12:00:39;4.13;;;2.20;;
29214;SDS011;16252;49.816;7.964;2023-05-17T12:03:25;5.68;;;2.30;;
29214;SDS011;16252;49.816;7.964;2023-05-17T12:06:14;5.50;;;2.97;;
29214;SDS011;16252;49.816;7.964;2023-05-17T12:08:43;7.45;;;3.10;;
29214;SDS011;16252;49.816;7.964;2023-05-17T12:11:10;6.75;;;2.85;;
29214;SDS011;16252;49.816;7.964;2023-05-17T12:13:38;4.60;;;2.55;;
29214;SDS011;16252;49.816;7.964;2023-05-17T12:16:10;4.45;;;2.60;;
29214;SDS011;16252;49.816;7.964;2023-05-17T12:18:40;4.32;;;2.50;;
29214;SDS011;16252;49.816;7.964;2023-05-17T12:21:07;4.07;;;2.42;;
29214;SDS011;16252;49.816;7.964;2023-05-17T12:23:35;3.88;;;2.60;;
29214;SDS011;16252;49.816;7.964;2023-05-17T12:26:08;5.50;;;2.20;;
29214;SDS011;16252;49.816;7.964;2023-05-17T12:28:39;7.10;;;2.42;;
29214;SDS011;16252;49.816;7.964;2023-05-17T12:31:14;5.35;;;2.63;;
29214;SDS011;16252;49.816;7.964;2023-05-17T12:33:42;5.10;;;2.40;;
29214;SDS011;16252;49.816;7.964;2023-05-17T12:36:09;5.78;;;2.00;;
29214;SDS011;16252;49.816;7.964;2023-05-17T12:38:36;3.35;;;2.00;;
29214;SDS011;16252;49.816;7.964;2023-05-17T12:41:04;5.13;;;2.40;;
29214;SDS011;16252;49.816;7.964;2023-05-17T12:43:32;5.80;;;2.58;;
29214;SDS011;16252;49.816;7.964;2023-05-17T12:46:11;5.10;;;2.30;;
29214;SDS011;16252;49.816;7.964;2023-05-17T12:48:39;4.53;;;2.58;;
29214;SDS011;16252;49.816;7.964;2023-05-17T12:51:09;5.07;;;2.28;;
29214;SDS011;16252;49.816;7.964;2023-05-17T12:53:59;4.13;;;2.30;;
29214;SDS011;16252;49.816;7.964;2023-05-17T12:56:28;5.13;;;2.63;;
29214;SDS011;16252;49.816;7.964;2023-05-17T13:01:35;2.65;;;1.98;;
29214;SDS011;16252;49.816;7.964;2023-05-17T13:04:01;4.55;;;2.05;;
29214;SDS011;16252;49.816;7.964;2023-05-17T13:06:27;3.83;;;2.20;;
29214;SDS011;16252;49.816;7.964;2023-05-17T13:08:59;4.43;;;1.95;;
29214;SDS011;16252;49.816;7.964;2023-05-17T13:11:25;3.05;;;1.80;;
29214;SDS011;16252;49.816;7.964;2023-05-17T13:13:51;2.70;;;1.88;;
29214;SDS011;16252;49.816;7.964;2023-05-17T13:16:17;3.85;;;1.92;;
29214;SDS011;16252;49.816;7.964;2023-05-17T13:18:52;4.25;;;2.10;;
29214;SDS011;16252;49.816;7.964;2023-05-17T13:21:19;6.40;;;2.38;;
29214;SDS011;16252;49.816;7.964;2023-05-17T13:23:45;3.92;;;2.03;;
29214;SDS011;16252;49.816;7.964;2023-05-17T13:26:12;4.15;;;1.65;;
29214;SDS011;16252;49.816;7.964;2023-05-17T13:28:37;3.40;;;1.98;;
29214;SDS011;16252;49.816;7.964;2023-05-17T13:31:04;2.83;;;1.70;;
29214;SDS011;16252;49.816;7.964;2023-05-17T13:33:29;2.58;;;1.33;;
29214;SDS011;16252;49.816;7.964;2023-05-17T13:35:55;5.07;;;1.77;;
29214;SDS011;16252;49.816;7.964;2023-05-17T13:38:20;3.85;;;1.63;;
29214;SDS011;16252;49.816;7.964;2023-05-17T13:40:45;4.43;;;1.60;;
29214;SDS011;16252;49.816;7.964;2023-05-17T13:43:11;4.00;;;1.70;;
29214;SDS011;16252;49.816;7.964;2023-05-17T13:45:36;3.20;;;1.70;;
29214;SDS011;16252;49.816;7.964;2023-05-17T13:48:02;4.63;;;1.30;;
29214;SDS011;16252;49.816;7.964;2023-05-17T13:50:27;3.83;;;1.45;;
29214;SDS011;16252;49.816;7.964;2023-05-17T13:52:52;3.38;;;1.65;;
29214;SDS011;16252;49.816;7.964;2023-05-17T13:55:18;3.75;;;1.60;;
29214;SDS011;16252;49.816;7.964;2023-05-17T13:57:43;3.25;;;1.70;;
29214;SDS011;16252;49.816;7.964;2023-05-17T14:00:09;4.38;;;1.73;;
29214;SDS011;16252;49.816;7.964;2023-05-17T14:02:35;4.10;;;1.55;;
29214;SDS011;16252;49.816;7.964;2023-05-17T14:05:01;3.47;;;1.58;;
29214;SDS011;16252;49.816;7.964;2023-05-17T14:07:26;3.53;;;2.03;;
29214;SDS011;16252;49.816;7.964;2023-05-17T14:09:51;2.85;;;1.25;;
29214;SDS011;16252;49.816;7.964;2023-05-17T14:12:16;3.67;;;1.50;;
29214;SDS011;16252;49.816;7.964;2023-05-17T14:14:42;3.67;;;1.63;;
29214;SDS011;16252;49.816;7.964;2023-05-17T14:17:07;5.80;;;1.55;;
29214;SDS011;16252;49.816;7.964;2023-05-17T14:19:32;4.30;;;1.35;;
29214;SDS011;16252;49.816;7.964;2023-05-17T14:21:58;3.33;;;1.80;;
29214;SDS011;16252;49.816;7.964;2023-05-17T14:24:23;2.92;;;1.35;;
29214;SDS011;16252;49.816;7.964;2023-05-17T14:26:48;4.57;;;1.40;;
29214;SDS011;16252;49.816;7.964;2023-05-17T14:29:13;5.30;;;1.65;;
29214;SDS011;16252;49.816;7.964;2023-05-17T14:31:39;3.97;;;1.20;;
29214;SDS011;16252;49.816;7.964;2023-05-17T14:34:05;3.88;;;1.48;;
29214;SDS011;16252;49.816;7.964;2023-05-17T14:36:30;4.50;;;1.27;;
29214;SDS011;16252;49.816;7.964;2023-05-17T14:38:59;4.68;;;1.42;;
29214;SDS011;16252;49.816;7.964;2023-05-17T14:41:24;3.25;;;1.23;;
29214;SDS011;16252;49.816;7.964;2023-05-17T14:43:50;5.07;;;1.60;;
29214;SDS011;16252;49.816;7.964;2023-05-17T14:46:15;5.38;;;1.40;;
29214;SDS011;16252;49.816;7.964;2023-05-17T14:48:40;7.18;;;1.63;;
29214;SDS011;16252;49.816;7.964;2023-05-17T14:51:06;3.20;;;1.10;;
29214;SDS011;16252;49.816;7.964;2023-05-17T14:53:31;3.47;;;1.35;;
29214;SDS011;16252;49.816;7.964;2023-05-17T14:55:56;3.17;;;1.30;;
29214;SDS011;16252;49.816;7.964;2023-05-17T14:58:22;4.45;;;1.42;;
29214;SDS011;16252;49.816;7.964;2023-05-17T15:00:48;2.30;;;1.35;;
29214;SDS011;16252;49.816;7.964;2023-05-17T15:03:15;4.45;;;1.80;;
29214;SDS011;16252;49.816;7.964;2023-05-17T15:05:41;3.45;;;1.50;;
29214;SDS011;16252;49.816;7.964;2023-05-17T15:08:06;2.65;;;1.20;;
29214;SDS011;16252;49.816;7.964;2023-05-17T15:10:32;4.80;;;1.85;;